createdAt,value
2023-01-03T00:00:08.076Z,100191.00
2023-01-03T00:03:10.006Z,100156.28
2023-01-03T00:06:26.513Z,100202.81
2023-01-03T00:09:28.144Z,100206.34
2023-01-03T00:12:32.146Z,100211.75
2023-01-03T00:15:38.571Z,100205.50
2023-01-03T00:18:40.257Z,100201.28
2023-01-03T00:21:44.560Z,100212.78
2023-01-03T00:24:48.465Z,100211.41
2023-01-03T00:27:50.269Z,100186.19
2023-01-03T00:30:52.064Z,100182.72
2023-01-03T00:33:54.501Z,100181.50
2023-01-03T00:36:56.776Z,100188.44
2023-01-03T00:39:58.484Z,100191.72
2023-01-03T00:43:18.884Z,100199.25
2023-01-03T00:46:22.190Z,100187.44
2023-01-03T00:49:24.108Z,100175.19
2023-01-03T00:56:09.748Z,100194.72
2023-01-03T00:59:12.691Z,100191.59
2023-01-03T01:02:14.667Z,100193.72
2023-01-03T01:05:16.623Z,100197.19
2023-01-03T01:08:18.906Z,100195.03
2023-01-03T01:11:21.098Z,100205.25
2023-01-03T01:14:25.201Z,100186.22
2023-01-03T01:17:28.459Z,100206.84
2023-01-03T01:20:37.443Z,100195.84
2023-01-03T01:23:41.160Z,100200.44
2023-01-03T01:26:43.416Z,100191.69
2023-01-03T01:29:45.583Z,100181.53
2023-01-03T01:32:47.246Z,100198.38
2023-01-03T01:35:49.413Z,100215.03
2023-01-03T01:38:59.855Z,100177.06
2023-01-03T01:42:27.330Z,100220.19
2023-01-03T01:45:32.257Z,100214.03
2023-01-03T01:48:34.014Z,100221.00
2023-01-03T01:51:36.511Z,100206.59
2023-01-03T01:54:40.538Z,100227.81
2023-01-03T01:57:43.257Z,100236.94
2023-01-03T02:00:49.802Z,100243.38
2023-01-03T02:04:01.169Z,100218.44
2023-01-03T02:07:03.261Z,100238.00
2023-01-03T02:10:05.872Z,100224.38
2023-01-03T02:13:31.699Z,100231.69
2023-01-03T02:17:18.848Z,100235.16
2023-01-03T02:20:48.056Z,100254.94
2023-01-03T02:24:14.865Z,100254.38
2023-01-03T02:27:48.242Z,100244.72
2023-01-03T02:31:28.223Z,100228.38
2023-01-03T02:34:45.800Z,100233.06
2023-01-03T02:38:09.859Z,100232.09
2023-01-03T02:41:29.702Z,100223.59
2023-01-03T02:44:36.819Z,100188.25
2023-01-03T02:48:00.647Z,100228.63
2023-01-03T02:51:10.847Z,100228.16
2023-01-03T02:54:19.355Z,100230.34
2023-01-03T02:57:29.676Z,100237.31
2023-01-03T03:00:34.051Z,100196.09
2023-01-03T03:03:40.366Z,100240.28
2023-01-03T03:06:54.915Z,100241.38
2023-01-03T03:10:15.164Z,100222.91
2023-01-03T03:13:42.972Z,100249.94
2023-01-03T03:16:49.425Z,100195.53
2023-01-03T03:20:15.326Z,100242.69
2023-01-03T03:23:39.626Z,100233.59
2023-01-03T03:26:54.764Z,100212.19
2023-01-03T03:29:59.956Z,100210.88
2023-01-03T03:33:06.185Z,100214.56
2023-01-03T03:36:23.312Z,100234.69
2023-01-03T03:39:45.961Z,100235.00
2023-01-03T03:43:17.478Z,100240.66
2023-01-03T03:46:27.968Z,100229.69
2023-01-03T03:49:49.335Z,100203.44
2023-01-03T03:52:55.667Z,100235.59
2023-01-03T03:56:03.139Z,100234.28
2023-01-03T03:59:10.445Z,100255.22
2023-01-03T04:02:14.282Z,100247.69
2023-01-03T04:05:28.308Z,100231.63
2023-01-03T04:08:30.181Z,100232.44
2023-01-03T04:11:31.804Z,100232.44
2023-01-03T04:14:33.547Z,100202.66
2023-01-03T04:17:35.148Z,100222.72
2023-01-03T04:20:36.974Z,100246.84
2023-01-03T04:23:38.611Z,100248.78
2023-01-03T04:26:40.245Z,100239.41
2023-01-03T04:29:43.268Z,100252.25
2023-01-03T04:32:44.976Z,100253.94
2023-01-03T04:35:46.508Z,100257.31
2023-01-03T04:38:50.954Z,100263.50
2023-01-03T04:41:52.662Z,100247.44
2023-01-03T04:44:54.451Z,100246.13
2023-01-03T04:47:56.178Z,100244.78
2023-01-03T04:50:59.576Z,100262.72
2023-01-03T04:54:01.872Z,100245.31
2023-01-03T04:57:03.588Z,100234.06
2023-01-03T05:00:06.516Z,100249.09
2023-01-03T05:03:09.266Z,100242.38
2023-01-03T05:06:12.486Z,100229.53
2023-01-03T05:09:14.141Z,100234.03
2023-01-03T05:12:15.812Z,100233.22
2023-01-03T05:15:17.691Z,100229.53
2023-01-03T05:18:19.607Z,100257.94
2023-01-03T05:21:40.935Z,100273.53
2023-01-03T05:25:01.179Z,100258.53
2023-01-03T05:28:03.810Z,100286.97
2023-01-03T05:31:05.546Z,100279.47
2023-01-03T05:34:08.910Z,100264.72
2023-01-03T05:37:10.660Z,100284.03
2023-01-03T05:40:12.855Z,100266.34
2023-01-03T05:43:14.531Z,100289.16
2023-01-03T05:46:16.633Z,100261.78
2023-01-03T05:49:19.335Z,100287.78
2023-01-03T05:52:21.137Z,100268.22
2023-01-03T05:55:23.957Z,100303.88
2023-01-03T05:58:25.725Z,100298.22
2023-01-03T06:01:28.677Z,100254.22
2023-01-03T06:04:30.466Z,100267.94
2023-01-03T06:07:34.009Z,100304.69
2023-01-03T06:10:41.319Z,100297.94
2023-01-03T06:13:43.026Z,100314.31
2023-01-03T06:17:03.620Z,100288.03
2023-01-03T06:20:05.933Z,100321.84
2023-01-03T06:23:10.965Z,100252.13
2023-01-03T06:26:12.652Z,100270.06
2023-01-03T06:29:14.394Z,100309.50
2023-01-03T06:32:16.015Z,100293.97
2023-01-03T06:35:17.744Z,100313.84
2023-01-03T06:38:19.396Z,100309.81
2023-01-03T06:41:21.685Z,100332.63
2023-01-03T06:44:23.572Z,100295.88
2023-01-03T06:47:43.761Z,100274.41
2023-01-03T06:51:04.050Z,100301.50
2023-01-03T06:54:07.555Z,100321.63
2023-01-03T06:57:09.243Z,100297.75
2023-01-03T07:00:11.477Z,100319.75
2023-01-03T07:03:13.143Z,100295.88
2023-01-03T07:06:17.640Z,100297.75
2023-01-03T07:09:19.312Z,100321.34
2023-01-03T07:12:39.649Z,100297.19
2023-01-03T07:15:45.417Z,100298.56
2023-01-03T07:18:54.739Z,100325.38
2023-01-03T07:21:56.782Z,100322.97
2023-01-03T07:24:58.459Z,100331.84
2023-01-03T07:28:05.837Z,100331.28
2023-01-03T07:31:08.982Z,100324.31
2023-01-03T07:34:10.744Z,100344.19
2023-01-03T07:37:12.331Z,100338.03
2023-01-03T07:40:13.882Z,100328.88
2023-01-03T07:43:34.001Z,100340.16
2023-01-03T07:46:35.868Z,100354.13
2023-01-03T07:49:37.692Z,100349.81
2023-01-03T07:52:42.366Z,100345.78
2023-01-03T07:55:47.731Z,100357.88
2023-01-03T07:58:51.855Z,100360.03
2023-01-03T08:01:54.252Z,100349.28
2023-01-03T08:04:56.112Z,100364.28
2023-01-03T08:07:58.224Z,100346.59
2023-01-03T08:11:18.756Z,100363.78
2023-01-03T08:14:25.282Z,100372.63
2023-01-03T08:17:28.224Z,100373.16
2023-01-03T08:20:29.937Z,100370.72
2023-01-03T08:23:32.082Z,100354.09
2023-01-03T08:26:33.673Z,100385.50
2023-01-03T08:29:35.357Z,100386.31
2023-01-03T08:32:38.825Z,100386.56
2023-01-03T08:35:44.099Z,100370.44
2023-01-03T08:38:51.497Z,100389.50
2023-01-03T08:42:00.369Z,100371.00
2023-01-03T08:45:06.594Z,100383.84
2023-01-03T08:48:10.493Z,100382.19
2023-01-03T08:51:12.185Z,100404.16
2023-01-03T08:54:13.872Z,100403.09
2023-01-03T08:57:15.532Z,100401.50
2023-01-03T09:00:17.371Z,100415.47
2023-01-03T09:03:19.577Z,100411.41
2023-01-03T09:06:21.540Z,100416.25
2023-01-03T09:09:23.862Z,100411.41
2023-01-03T09:12:25.540Z,100398.59
2023-01-03T09:15:27.241Z,100425.94
2023-01-03T09:18:28.889Z,100428.91
2023-01-03T09:21:30.917Z,100425.91
2023-01-03T09:24:37.061Z,100420.53
2023-01-03T09:27:38.675Z,100401.75
2023-01-03T09:30:40.373Z,100413.28
2023-01-03T09:33:45.313Z,100412.50
2023-01-03T09:36:47.047Z,100420.81
2023-01-03T09:39:48.757Z,100405.72
2023-01-03T09:43:10.648Z,100437.41
2023-01-03T09:46:20.200Z,100449.50
2023-01-03T09:49:21.876Z,100428.53
2023-01-03T09:52:51.210Z,100448.94
2023-01-03T09:56:25.701Z,100445.34
2023-01-03T09:59:53.254Z,100448.47
2023-01-03T10:03:22.924Z,100443.34
2023-01-03T10:06:33.468Z,100432.56
2023-01-03T10:09:49.214Z,100437.38
2023-01-03T10:13:39.015Z,100436.44
2023-01-03T10:17:03.695Z,100377.22
2023-01-03T10:20:27.970Z,100395.00
2023-01-03T10:23:35.958Z,100422.09
2023-01-03T10:26:41.083Z,100397.78
2023-01-03T10:29:44.862Z,100417.34
2023-01-03T10:33:02.583Z,100393.41
2023-01-03T10:36:08.619Z,100409.53
2023-01-03T10:39:11.119Z,100412.16
2023-01-03T10:42:19.551Z,100410.94
2023-01-03T10:45:21.827Z,100416.59
2023-01-03T10:48:24.498Z,100433.69
2023-01-03T10:51:43.114Z,100428.59
2023-01-03T10:55:06.362Z,100368.16
2023-01-03T10:58:34.071Z,100362.63
2023-01-03T11:01:56.210Z,100428.69
2023-01-03T11:05:22.275Z,100396.09
2023-01-03T11:08:50.615Z,100404.38
2023-01-03T11:12:28.103Z,100401.28
2023-01-03T11:15:38.277Z,100422.34
2023-01-03T11:19:11.581Z,100415.53
2023-01-03T11:22:37.460Z,100415.72
2023-01-03T11:26:01.523Z,100389.78
2023-01-03T11:29:16.940Z,100414.03
2023-01-03T11:32:33.911Z,100410.91
2023-01-03T11:35:38.700Z,100404.63
2023-01-03T11:38:47.860Z,100407.06
2023-01-03T11:42:02.453Z,100406.66
2023-01-03T11:45:26.528Z,100398.00
2023-01-03T11:48:40.948Z,100403.25
2023-01-03T11:52:06.732Z,100396.88
2023-01-03T11:55:26.376Z,100372.41
2023-01-03T11:58:52.495Z,100397.47
2023-01-03T12:02:19.010Z,100402.97
2023-01-03T12:05:43.885Z,100400.50
2023-01-03T12:09:03.502Z,100365.41
2023-01-03T12:12:24.196Z,100397.03
2023-01-03T12:15:44.795Z,100374.16
2023-01-03T12:18:46.665Z,100392.81
2023-01-03T12:21:53.858Z,100348.25
2023-01-03T12:25:05.544Z,100347.28
2023-01-03T12:28:13.504Z,100401.53
2023-01-03T12:31:43.887Z,100390.59
2023-01-03T12:35:12.420Z,100368.44
2023-01-03T12:38:15.738Z,100384.31
2023-01-03T12:42:02.801Z,100376.53
2023-01-03T12:45:07.711Z,100381.19
2023-01-03T12:48:43.302Z,100377.88
2023-01-03T12:51:54.272Z,100331.06
2023-01-03T12:55:04.995Z,100353.81
2023-01-03T12:58:33.808Z,100340.34
2023-01-03T13:01:54.440Z,100322.69
2023-01-03T13:05:09.025Z,100326.19
2023-01-03T13:09:16.441Z,100367.69
2023-01-03T13:20:37.849Z,100322.75
2023-01-03T13:24:03.826Z,100304.13
2023-01-03T13:27:21.142Z,100336.72
2023-01-03T13:30:30.991Z,100352.69
2023-01-03T13:34:25.985Z,100310.97
2023-01-03T13:37:51.592Z,100342.75
2023-01-03T13:41:19.140Z,100327.34
2023-01-03T13:44:24.508Z,100311.22
2023-01-03T13:47:41.539Z,100337.78
2023-01-03T13:51:04.673Z,100346.72
2023-01-03T13:54:43.048Z,100318.53
2023-01-03T13:57:53.332Z,100332.53
2023-01-03T14:01:05.188Z,100334.94
2023-01-03T14:09:17.137Z,100347.13
2023-01-03T14:13:25.036Z,100311.44
2023-01-03T14:16:47.660Z,100320.88
2023-01-03T14:20:09.626Z,100343.66
2023-01-03T14:26:43.142Z,100320.50
2023-01-03T14:29:49.952Z,100330.06
2023-01-03T14:32:54.663Z,100328.00
2023-01-03T14:36:13.973Z,100304.69
2023-01-03T14:42:34.617Z,100310.84
2023-01-03T14:45:36.613Z,100356.84
2023-01-03T14:48:38.884Z,100351.53
2023-01-03T14:51:40.849Z,100336.88
2023-01-03T14:55:04.248Z,100348.53
2023-01-03T14:58:28.873Z,100349.13
2023-01-03T15:01:33.226Z,100328.94
2023-01-03T15:04:45.618Z,100333.00
2023-01-03T15:07:47.538Z,100322.78
2023-01-03T15:11:16.268Z,100358.34
2023-01-03T15:14:28.716Z,100326.13
2023-01-03T15:17:33.215Z,100346.56
2023-01-03T15:20:40.984Z,100341.09
2023-01-03T15:23:45.910Z,100339.03
2023-01-03T15:26:52.303Z,100365.38
2023-01-03T15:30:13.914Z,100364.16
2023-01-03T15:33:34.491Z,100359.69
2023-01-03T15:36:37.403Z,100382.75
2023-01-03T15:39:56.680Z,100386.69
2023-01-03T15:43:22.072Z,100358.75
2023-01-03T15:46:25.764Z,100368.84
2023-01-03T15:49:29.920Z,100377.00
2023-01-03T15:52:35.150Z,100370.66
2023-01-03T15:55:38.945Z,100365.38
2023-01-03T15:58:40.602Z,100368.38
2023-01-03T16:01:42.439Z,100372.72
2023-01-03T16:04:48.745Z,100396.13
2023-01-03T16:07:50.931Z,100361.75
2023-01-03T16:10:53.519Z,100398.41
2023-01-03T16:14:30.744Z,100397.66
2023-01-03T16:17:32.735Z,100324.28
2023-01-03T16:20:41.894Z,100365.88
2023-01-03T16:23:44.751Z,100382.88
2023-01-03T16:26:47.303Z,100387.50
2023-01-03T16:29:52.490Z,100357.22
2023-01-03T16:32:54.201Z,100372.25
2023-01-03T16:35:56.537Z,100355.31
2023-01-03T16:38:59.304Z,100396.88
2023-01-03T16:42:13.094Z,100385.94
2023-01-03T16:45:16.244Z,100414.13
2023-01-03T16:48:24.014Z,100396.44
2023-01-03T16:51:32.630Z,100386.53
2023-01-03T16:55:28.614Z,100410.19
2023-01-03T16:58:55.275Z,100425.47
2023-01-03T17:02:27.695Z,100380.41
2023-01-03T17:05:37.416Z,100436.47
2023-01-03T17:08:47.336Z,100409.38
2023-01-03T17:11:49.388Z,100409.84
2023-01-03T17:14:54.869Z,100395.38
2023-01-03T17:17:56.935Z,100406.63
2023-01-03T17:21:11.834Z,100394.78
2023-01-03T17:24:25.368Z,100374.38
2023-01-03T17:27:32.681Z,100418.34
2023-01-03T17:30:35.723Z,100393.97
2023-01-03T17:33:37.774Z,100411.38
2023-01-03T17:36:40.592Z,100388.34
2023-01-03T17:39:42.535Z,100378.44
2023-01-03T17:42:44.906Z,100380.88
2023-01-03T17:46:06.672Z,100386.25
2023-01-03T17:49:26.518Z,100413.63
2023-01-03T17:52:34.657Z,100421.91
2023-01-03T17:56:01.990Z,100422.19
2023-01-03T17:59:10.764Z,100394.88
2023-01-03T18:02:18.503Z,100413.69
2023-01-03T18:05:30.003Z,100394.09
2023-01-03T18:08:35.732Z,100386.53
2023-01-03T18:11:45.917Z,100417.41
2023-01-03T18:14:57.469Z,100416.38
2023-01-03T18:18:10.382Z,100373.97
2023-01-03T18:21:21.473Z,100428.72
2023-01-03T18:24:28.880Z,100409.91
2023-01-03T18:27:30.757Z,100400.81
2023-01-03T18:30:32.853Z,100400.25
2023-01-03T18:33:34.581Z,100415.28
2023-01-03T18:36:41.404Z,100446.97
2023-01-03T18:40:04.131Z,100446.97
2023-01-03T18:43:33.010Z,100447.00
2023-01-03T18:46:34.985Z,100424.19
2023-01-03T18:49:36.789Z,100415.59
2023-01-03T18:52:44.232Z,100421.50
2023-01-03T18:55:46.863Z,100435.19
2023-01-03T18:58:55.338Z,100420.69
2023-01-03T19:02:00.021Z,100454.00
2023-01-03T19:05:01.815Z,100457.47
2023-01-03T19:08:03.531Z,100439.75
2023-01-03T19:11:14.996Z,100443.25
2023-01-03T19:14:16.814Z,100442.97
2023-01-03T19:17:20.125Z,100438.63
2023-01-03T19:20:26.789Z,100454.75
2023-01-03T19:23:29.103Z,100420.06
2023-01-03T19:26:44.693Z,100427.59
2023-01-03T19:29:50.453Z,100435.63
2023-01-03T19:32:59.588Z,100398.03
2023-01-03T19:36:02.312Z,100434.53
2023-01-03T19:39:06.794Z,100419.25
2023-01-03T19:42:35.172Z,100452.03
2023-01-03T19:45:41.083Z,100429.00
2023-01-03T19:48:53.828Z,100408.03
2023-01-03T19:51:58.277Z,100463.88
2023-01-03T19:55:00.005Z,100444.84
2023-01-03T19:58:26.273Z,100443.22
2023-01-03T20:01:38.553Z,100447.25
2023-01-03T20:08:12.196Z,100438.13
2023-01-03T20:11:25.028Z,100414.50
2023-01-03T20:14:28.936Z,100409.63
2023-01-03T20:17:36.908Z,100435.09
2023-01-03T20:20:41.142Z,100419.56
2023-01-03T20:23:49.225Z,100415.03
2023-01-03T20:26:52.631Z,100406.72
2023-01-03T20:30:13.865Z,100455.31
2023-01-03T20:33:15.596Z,100413.69
2023-01-03T20:36:24.380Z,100447.00
2023-01-03T20:39:29.278Z,100448.63
2023-01-03T20:42:30.893Z,100428.22
2023-01-03T20:45:33.316Z,100420.16
2023-01-03T20:48:35.043Z,100412.38
2023-01-03T20:51:36.769Z,100425.50
2023-01-03T20:54:40.708Z,100417.47
2023-01-03T20:57:51.997Z,100425.53
2023-01-03T21:01:02.117Z,100428.22
2023-01-03T21:04:06.209Z,100404.03
2023-01-03T21:07:48.910Z,100414.81
2023-01-03T21:10:54.612Z,100410.47
2023-01-03T21:13:58.006Z,100375.59
2023-01-03T21:16:59.798Z,100394.13
2023-01-03T21:20:01.490Z,100410.22
2023-01-03T21:23:03.242Z,100410.47
2023-01-03T21:26:05.081Z,100394.91
2023-01-03T21:29:07.969Z,100413.16
2023-01-03T21:32:10.906Z,100393.28
2023-01-03T21:35:18.181Z,100396.22
2023-01-03T21:38:23.137Z,100398.09
2023-01-03T21:41:29.859Z,100363.22
2023-01-03T21:44:31.480Z,100396.50
2023-01-03T21:47:33.176Z,100387.63
2023-01-03T21:50:49.937Z,100404.81
2023-01-03T21:53:51.881Z,100371.28
2023-01-03T21:56:54.542Z,100354.34
2023-01-03T21:59:56.107Z,100375.25
2023-01-03T22:03:16.604Z,100390.00
2023-01-03T22:06:18.342Z,100367.75
2023-01-03T22:09:38.165Z,100366.94
2023-01-03T22:12:49.491Z,100392.47
2023-01-03T22:15:51.090Z,100390.06
2023-01-03T22:18:55.781Z,100375.56
2023-01-03T22:21:57.462Z,100369.38
2023-01-03T22:25:05.208Z,100396.72
2023-01-03T22:28:16.669Z,100389.25
2023-01-03T22:31:24.679Z,100408.31
2023-01-03T22:34:26.482Z,100391.69
2023-01-03T22:37:28.192Z,100375.56
2023-01-03T22:40:35.112Z,100356.78
2023-01-03T22:43:37.079Z,100387.91
2023-01-03T22:46:46.341Z,100374.50
2023-01-03T22:49:47.996Z,100364.78
2023-01-03T22:52:50.649Z,100373.13
2023-01-03T22:55:55.234Z,100366.44
2023-01-03T22:59:01.096Z,100353.56
2023-01-03T23:05:28.992Z,100382.03
2023-01-03T23:08:55.630Z,100328.06
2023-01-03T23:12:15.988Z,100346.06
2023-01-03T23:15:27.453Z,100361.63
2023-01-03T23:19:07.853Z,100380.41
2023-01-03T23:22:35.740Z,100365.09
2023-01-03T23:25:37.430Z,100307.38
2023-01-03T23:28:39.164Z,100346.53
2023-01-03T23:31:49.156Z,100354.59
2023-01-03T23:34:53.083Z,100354.59
2023-01-03T23:38:28.182Z,100350.06
2023-01-03T23:41:30.205Z,100331.53
2023-01-03T23:44:34.873Z,100322.41
2023-01-03T23:47:36.756Z,100323.44
2023-01-03T23:50:38.599Z,100350.28
2023-01-03T23:53:43.019Z,100338.47
2023-01-03T23:56:44.680Z,100308.69
2023-01-03T23:59:46.522Z,100293.06
